Budapest

METAR
SPECI

METAR LHBP 261830Z 00000KT CAVOK 13/09 Q1023 NOSIG=

METAR LHBP 261800Z VRB02KT CAVOK 14/09 Q1023 NOSIG=

METAR LHBP 261730Z VRB03KT CAVOK 16/08 Q1023 NOSIG=

METAR LHBP 261700Z VRB01KT CAVOK 16/09 Q1022 NOSIG=

METAR LHBP 261630Z 00000KT CAVOK 17/09 Q1022 NOSIG=

METAR LHBP 261600Z VRB01KT CAVOK 18/07 Q1022 NOSIG=


TAF

TAF LHBP 261700Z 2618/2718 VRB03KT CAVOK TEMPO 2708/2712 SCT045=

METARRepülőterek meteorológiai tényadatai félóránkéntSAHU31
SAHU41
SPECIKülönleges időjárás-jelentő táviratSPHU31
SPHU85
TAFRepülőterek legfrissebb meteorológiai előrejelzéseFTHU31
FCHU41

GAMET

Nincs érvényes távirat 

FAHU41 LHBM 261100
LHCC GAMET VALID 261200/261800 LHBP-
BUDAPEST FIR BLW FL100

SECN I
HAZARDOUS WX NIL=
OMSZ:  [FAHU41]
GAMETTerületi előrejelzés, FL100 (~3000 m) alatti veszélyes időjárási jelenségekrőlFAHU41
AIRMET

Nincs érvényes távirat 

WAHU41 LHBM 130800
LHCC AIRMET 01 VALID 130800/131000 LHBP-
LHCC BUDAPEST FIR ISOL TS OBS WI N4757 E02112 - N4757 E02244
- N4714 E02150 - N4718 E02111 - N4757 E02112 TOP FL340 MOV
SW NC=
OMSZ:  [WAHU41]
AIRMETRiasztás a kisgépes repülés számára veszélyes időjárási jelenség miatt (talajszint és FL100 közötti légtérre)WAHU41
SIGMET

Nincs érvényes távirat 

WSHU31 LHBM 191615
LHCC SIGMET 08 VALID 191615/191800 LHBP-
LHCC BUDAPEST FIR EMBD TS OBS AT 1615Z WI N4540 E01750 -
N4800 E01750 - N4810 E01920 - N4540 E01900 - N4540 E01750
TOP FL340 MOV WSW WKN=
OMSZ:  [WSHU31]
SIGMETRiasztás, a repülésre különösen veszélyes időjárási jelenség miatt (talajszint és FL450 közötti légtérre)WSHU31
SIGMET
Vulkáni
hamufelhő

Nincs érvényes távirat 

WVHU31 LHBM 271515 CCA
LHCC SIGMET 03 VALID 271515/271800 LHBP-
LHCC BUDAPEST FIR EXERCISE VOLCEX12/01
CNL VA SIGMET 02 271200/271800
EXERCISE EXERCISE EXERCISE VOLCEX12/01=
OMSZ:  [WVHU31]
SIGMET
Vulkáni
hamufelhő
Riasztás, a repülésre különösen veszélyes vulkáni tevékenység miattWVHU31